createdAt,value
2023-04-02T00:03:46.220Z,4.68
2023-04-02T00:06:34.691Z,5.95
2023-04-02T00:09:13.924Z,4.65
2023-04-02T00:11:43.054Z,4.53
2023-04-02T00:14:29.975Z,4.97
2023-04-02T00:17:00.117Z,5.05
2023-04-02T00:19:43.473Z,4.68
2023-04-02T00:22:22.892Z,5.25
2023-04-02T00:24:55.284Z,5.47
2023-04-02T00:27:23.381Z,4.72
2023-04-02T00:29:56.265Z,4.80
2023-04-02T00:32:35.180Z,5.00
2023-04-02T00:35:03.767Z,5.50
2023-04-02T00:37:39.499Z,4.95
2023-04-02T00:40:21.554Z,4.75
2023-04-02T00:42:54.377Z,5.15
2023-04-02T00:45:28.983Z,4.63
2023-04-02T00:47:58.977Z,4.88
2023-04-02T00:50:46.062Z,4.72
2023-04-02T00:53:25.745Z,4.40
2023-04-02T00:55:53.609Z,4.60
2023-04-02T00:58:32.664Z,4.90
2023-04-02T01:01:00.430Z,3.88
2023-04-02T01:03:35.359Z,3.72
2023-04-02T01:06:11.032Z,4.13
2023-04-02T01:08:59.488Z,4.47
2023-04-02T01:11:54.177Z,3.78
2023-04-02T01:14:40.613Z,3.45
2023-04-02T01:17:43.206Z,4.20
2023-04-02T01:20:19.059Z,4.25
2023-04-02T01:22:55.389Z,4.55
2023-04-02T01:25:49.805Z,4.90
2023-04-02T01:30:54.673Z,4.20
2023-04-02T01:33:31.298Z,4.30
2023-04-02T01:36:09.897Z,4.00
2023-04-02T01:38:46.351Z,3.80
2023-04-02T01:41:33.671Z,3.65
2023-04-02T01:44:15.714Z,3.35
2023-04-02T01:46:43.478Z,3.50
2023-04-02T01:49:18.421Z,3.10
2023-04-02T01:51:51.090Z,3.78
2023-04-02T01:54:20.033Z,3.42
2023-04-02T01:56:48.036Z,3.55
2023-04-02T01:59:22.527Z,3.35
2023-04-02T02:02:06.698Z,3.78
2023-04-02T02:07:02.700Z,3.63
2023-04-02T02:09:33.674Z,3.85
2023-04-02T02:12:03.015Z,3.63
2023-04-02T02:14:31.825Z,3.92
2023-04-02T02:17:04.155Z,3.40
2023-04-02T02:19:39.449Z,3.20
2023-04-02T02:22:28.851Z,3.08
2023-04-02T02:24:58.947Z,3.35
2023-04-02T02:27:26.290Z,3.20
2023-04-02T02:29:58.643Z,3.08
2023-04-02T02:32:30.123Z,2.53
2023-04-02T02:35:05.114Z,3.17
2023-04-02T02:37:37.658Z,3.80
2023-04-02T02:40:12.207Z,3.70
2023-04-02T02:42:47.214Z,3.92
2023-04-02T02:45:18.703Z,4.55
2023-04-02T02:47:46.804Z,3.47
2023-04-02T02:50:26.500Z,3.95
2023-04-02T02:52:56.365Z,3.92
2023-04-02T02:55:34.693Z,4.80
2023-04-02T02:58:07.027Z,4.07
2023-04-02T03:00:36.302Z,4.30
2023-04-02T03:03:08.219Z,4.50
2023-04-02T03:05:36.705Z,4.63
2023-04-02T03:08:07.320Z,4.45
2023-04-02T03:10:43.358Z,4.43
2023-04-02T03:13:35.792Z,3.88
2023-04-02T03:16:32.027Z,3.20
2023-04-02T03:19:17.308Z,3.50
2023-04-02T03:21:57.818Z,3.30
2023-04-02T03:24:27.803Z,3.15
2023-04-02T03:27:02.737Z,3.00
2023-04-02T03:29:33.303Z,3.45
2023-04-02T03:32:12.277Z,3.15
2023-04-02T03:34:45.804Z,3.70
2023-04-02T03:37:33.584Z,3.20
2023-04-02T03:40:04.727Z,2.95
2023-04-02T03:42:44.075Z,3.30
2023-04-02T03:45:23.192Z,2.90
2023-04-02T03:48:29.208Z,3.00
2023-04-02T03:51:05.677Z,2.67
2023-04-02T03:53:33.037Z,3.75
2023-04-02T03:56:01.993Z,3.08
2023-04-02T03:58:42.413Z,3.88
2023-04-02T04:01:32.058Z,4.10
2023-04-02T04:04:09.280Z,4.30
2023-04-02T04:06:37.780Z,4.35
2023-04-02T04:09:22.804Z,4.45
2023-04-02T04:11:54.449Z,3.85
2023-04-02T04:14:32.634Z,3.83
2023-04-02T04:17:30.891Z,4.88
2023-04-02T04:20:22.265Z,3.50
2023-04-02T04:22:56.237Z,4.03
2023-04-02T04:25:34.066Z,3.55
2023-04-02T04:28:11.023Z,4.97
2023-04-02T04:30:51.203Z,3.88
2023-04-02T04:33:23.366Z,4.10
2023-04-02T04:35:56.047Z,4.25
2023-04-02T04:38:55.954Z,3.50
2023-04-02T04:41:44.034Z,4.22
2023-04-02T04:44:38.508Z,4.75
2023-04-02T04:49:57.183Z,3.80
2023-04-02T04:52:37.029Z,3.72
2023-04-02T04:55:22.722Z,4.43
2023-04-02T04:57:51.288Z,3.83
2023-04-02T05:00:50.088Z,4.25
2023-04-02T05:03:33.201Z,3.72
2023-04-02T05:06:35.091Z,4.18
2023-04-02T05:09:11.871Z,4.10
2023-04-02T05:11:46.033Z,3.65
2023-04-02T05:14:35.958Z,3.88
2023-04-02T05:17:15.613Z,3.28
2023-04-02T05:20:16.574Z,3.50
2023-04-02T05:23:19.285Z,2.85
2023-04-02T05:26:09.625Z,2.90
2023-04-02T05:28:47.159Z,2.85
2023-04-02T05:31:22.793Z,3.30
2023-04-02T05:33:50.560Z,3.38
2023-04-02T05:36:24.668Z,3.78
2023-04-02T05:38:53.746Z,3.88
2023-04-02T05:41:33.222Z,3.65
2023-04-02T05:44:28.360Z,3.85
2023-04-02T05:47:05.463Z,4.13
2023-04-02T05:49:52.909Z,3.80
2023-04-02T05:52:28.483Z,4.43
2023-04-02T05:55:13.812Z,4.00
2023-04-02T05:58:10.429Z,5.70
2023-04-02T06:00:39.485Z,3.42
2023-04-02T06:03:46.445Z,2.85
2023-04-02T06:06:23.822Z,3.00
2023-04-02T06:09:01.215Z,3.30
2023-04-02T06:11:37.626Z,3.80
2023-04-02T06:14:05.064Z,3.95
2023-04-02T06:16:34.662Z,4.03
2023-04-02T06:19:01.920Z,3.65
2023-04-02T06:21:28.998Z,3.90
2023-04-02T06:24:01.995Z,3.42
2023-04-02T06:26:40.538Z,3.90
2023-04-02T06:29:13.555Z,3.60
2023-04-02T06:31:57.650Z,3.45
2023-04-02T06:36:57.791Z,3.80
2023-04-02T06:39:26.394Z,3.55
2023-04-02T06:42:23.346Z,3.15
2023-04-02T06:44:51.097Z,2.53
2023-04-02T06:47:27.188Z,2.80
2023-04-02T06:50:15.266Z,3.13
2023-04-02T06:52:50.348Z,3.08
2023-04-02T06:56:10.833Z,3.40
2023-04-02T06:58:38.056Z,2.92
2023-04-02T07:01:05.344Z,3.58
2023-04-02T07:03:33.112Z,3.45
2023-04-02T07:06:03.191Z,4.20
2023-04-02T07:08:30.350Z,3.78
2023-04-02T07:10:57.381Z,3.47
2023-04-02T07:13:25.385Z,4.43
2023-04-02T07:15:55.466Z,4.00
2023-04-02T07:18:30.023Z,4.00
2023-04-02T07:20:57.406Z,4.13
2023-04-02T07:23:26.969Z,4.13
2023-04-02T07:25:55.894Z,4.22
2023-04-02T07:28:23.460Z,4.25
2023-04-02T07:30:51.644Z,3.85
2023-04-02T07:33:22.413Z,3.58
2023-04-02T07:35:50.746Z,3.80
2023-04-02T07:38:17.825Z,3.40
2023-04-02T07:40:45.043Z,3.00
2023-04-02T07:43:12.086Z,3.10
2023-04-02T07:45:39.392Z,3.40
2023-04-02T07:48:14.168Z,3.10
2023-04-02T07:50:41.452Z,3.72
2023-04-02T07:53:09.109Z,4.10
2023-04-02T07:55:36.575Z,4.63
2023-04-02T07:58:04.494Z,4.50
2023-04-02T08:00:32.514Z,4.10
2023-04-02T08:02:59.664Z,4.00
2023-04-02T08:05:28.140Z,4.95
2023-04-02T08:07:56.412Z,4.00
2023-04-02T08:10:24.482Z,4.05
2023-04-02T08:12:51.767Z,4.35
2023-04-02T08:15:19.549Z,4.30
2023-04-02T08:17:48.185Z,4.53
2023-04-02T08:20:20.598Z,5.05
2023-04-02T08:22:48.985Z,4.65
2023-04-02T08:25:17.132Z,4.40
2023-04-02T08:27:47.883Z,4.22
2023-04-02T08:30:17.758Z,4.40
2023-04-02T08:32:44.932Z,4.47
2023-04-02T08:35:15.085Z,4.57
2023-04-02T08:37:43.120Z,4.07
2023-04-02T08:40:23.449Z,4.70
2023-04-02T08:43:24.534Z,4.90
2023-04-02T08:46:01.190Z,5.00
2023-04-02T08:48:31.525Z,4.70
2023-04-02T08:51:00.089Z,4.38
2023-04-02T08:53:34.236Z,4.68
2023-04-02T08:56:40.935Z,5.07
2023-04-02T08:59:25.355Z,4.80
2023-04-02T09:02:22.211Z,5.07
2023-04-02T09:04:50.191Z,5.45
2023-04-02T09:07:18.328Z,5.35
2023-04-02T09:09:49.250Z,5.55
2023-04-02T09:12:21.843Z,5.53
2023-04-02T09:15:12.196Z,6.05
2023-04-02T09:17:50.519Z,5.38
2023-04-02T09:20:24.541Z,5.53
2023-04-02T09:22:54.009Z,5.25
2023-04-02T09:25:27.358Z,5.43
2023-04-02T09:27:57.472Z,5.50
2023-04-02T09:30:29.813Z,5.10
2023-04-02T09:33:03.123Z,6.60
2023-04-02T09:35:32.912Z,7.03
2023-04-02T09:38:20.252Z,6.15
2023-04-02T09:41:03.975Z,6.78
2023-04-02T09:43:33.906Z,5.40
2023-04-02T09:46:04.472Z,6.40
2023-04-02T09:48:33.919Z,6.93
2023-04-02T09:51:13.205Z,5.28
2023-04-02T09:53:46.515Z,5.82
2023-04-02T09:56:21.877Z,6.43
2023-04-02T09:59:13.753Z,5.65
2023-04-02T10:01:44.474Z,6.00
2023-04-02T10:04:30.122Z,5.68
2023-04-02T10:06:59.314Z,5.93
2023-04-02T10:09:31.050Z,5.40
2023-04-02T10:11:59.984Z,5.43
2023-04-02T10:14:53.957Z,6.07
2023-04-02T10:17:28.632Z,5.55
2023-04-02T10:20:06.766Z,5.22
2023-04-02T10:22:33.987Z,5.57
2023-04-02T10:25:01.749Z,5.55
2023-04-02T10:27:59.891Z,6.05
2023-04-02T10:30:39.509Z,5.43
2023-04-02T10:33:12.742Z,5.18
2023-04-02T10:35:48.557Z,5.93
2023-04-02T10:38:39.028Z,6.50
2023-04-02T10:41:24.359Z,6.05
2023-04-02T10:44:20.099Z,6.43
2023-04-02T10:46:55.658Z,6.00
2023-04-02T10:49:30.861Z,5.95
2023-04-02T10:52:29.744Z,6.20
2023-04-02T10:55:02.495Z,5.80
2023-04-02T10:57:39.458Z,5.63
2023-04-02T11:00:13.251Z,6.05
2023-04-02T11:02:46.553Z,6.13
2023-04-02T11:05:40.990Z,6.00
2023-04-02T11:11:08.358Z,6.75
2023-04-02T11:14:13.272Z,7.05
2023-04-02T11:16:43.932Z,9.90
2023-04-02T11:19:17.783Z,7.93
2023-04-02T11:22:03.764Z,6.28
2023-04-02T11:24:42.885Z,7.82
2023-04-02T11:27:15.628Z,6.25
2023-04-02T11:30:07.076Z,5.45
2023-04-02T11:32:42.955Z,5.78
2023-04-02T11:35:32.001Z,6.07
2023-04-02T11:38:11.545Z,6.57
2023-04-02T11:40:46.442Z,6.25
2023-04-02T11:43:35.924Z,6.75
2023-04-02T11:46:05.699Z,6.72
2023-04-02T11:48:36.436Z,6.65
2023-04-02T11:51:23.857Z,6.70
2023-04-02T11:53:54.206Z,7.00
2023-04-02T11:56:37.242Z,7.03
2023-04-02T11:59:06.859Z,6.20
2023-04-02T12:02:06.348Z,6.72
2023-04-02T12:04:38.012Z,7.07
2023-04-02T12:07:04.981Z,6.57
2023-04-02T12:09:59.390Z,6.43
2023-04-02T12:12:32.377Z,6.45
2023-04-02T12:15:01.220Z,7.47
2023-04-02T12:17:41.227Z,7.53
2023-04-02T12:20:10.125Z,6.60
2023-04-02T12:22:47.822Z,7.20
2023-04-02T12:25:23.591Z,7.18
2023-04-02T12:28:11.854Z,5.32
2023-04-02T12:30:39.561Z,6.07
2023-04-02T12:33:30.927Z,7.07
2023-04-02T12:36:02.569Z,6.28
2023-04-02T12:38:33.629Z,5.90
2023-04-02T12:41:04.026Z,5.72
2023-04-02T12:43:34.046Z,6.38
2023-04-02T12:46:09.431Z,6.13
2023-04-02T12:48:37.180Z,6.18
2023-04-02T12:51:05.008Z,6.20
2023-04-02T12:53:35.048Z,6.47
2023-04-02T12:56:03.140Z,6.65
2023-04-02T12:58:42.903Z,5.57
2023-04-02T13:01:21.252Z,6.32
2023-04-02T13:04:06.963Z,6.43
2023-04-02T13:06:35.553Z,5.88
2023-04-02T13:09:05.749Z,6.03
2023-04-02T13:11:41.677Z,5.65
2023-04-02T13:14:18.597Z,6.45
2023-04-02T13:16:46.466Z,6.90
2023-04-02T13:19:33.609Z,6.55
2023-04-02T13:22:03.283Z,5.63
2023-04-02T13:24:32.817Z,5.68
2023-04-02T13:27:02.084Z,7.65
2023-04-02T13:29:34.287Z,5.93
2023-04-02T13:32:03.922Z,6.15
2023-04-02T13:34:31.281Z,6.20
2023-04-02T13:36:58.788Z,5.70
2023-04-02T13:39:26.299Z,5.70
2023-04-02T13:42:00.905Z,5.82
2023-04-02T13:44:30.463Z,5.40
2023-04-02T13:46:58.192Z,6.25
2023-04-02T13:49:26.609Z,6.53
2023-04-02T13:51:55.074Z,6.00
2023-04-02T13:54:35.210Z,6.13
2023-04-02T13:57:02.300Z,5.63
2023-04-02T13:59:29.512Z,5.95
2023-04-02T14:02:09.372Z,6.10
2023-04-02T14:04:43.035Z,6.30
2023-04-02T14:07:43.495Z,5.95
2023-04-02T14:10:30.284Z,5.68
2023-04-02T14:13:40.632Z,5.45
2023-04-02T14:16:31.969Z,6.13
2023-04-02T14:19:34.214Z,5.93
2023-04-02T14:22:22.060Z,6.40
2023-04-02T14:25:27.944Z,5.35
2023-04-02T14:28:11.504Z,5.30
2023-04-02T14:30:55.409Z,5.63
2023-04-02T14:36:23.683Z,5.22
2023-04-02T14:39:29.144Z,6.32
2023-04-02T14:42:06.968Z,6.50
2023-04-02T14:44:42.550Z,6.60
2023-04-02T14:47:24.771Z,5.50
2023-04-02T14:49:57.592Z,5.68
2023-04-02T14:52:27.521Z,5.13
2023-04-02T14:55:10.382Z,5.30
2023-04-02T14:57:41.352Z,5.53
2023-04-02T15:00:29.144Z,6.05
2023-04-02T15:03:19.241Z,5.95
2023-04-02T15:05:54.265Z,5.68
2023-04-02T15:08:30.964Z,5.93
2023-04-02T15:11:10.384Z,6.30
2023-04-02T15:13:48.102Z,5.63
2023-04-02T15:16:19.756Z,5.70
2023-04-02T15:18:51.600Z,5.95
2023-04-02T15:21:25.948Z,5.22
2023-04-02T15:24:12.907Z,5.28
2023-04-02T15:27:24.561Z,5.15
2023-04-02T15:30:13.165Z,5.78
2023-04-02T15:32:41.523Z,5.85
2023-04-02T15:35:23.890Z,6.05
2023-04-02T15:38:23.074Z,5.63
2023-04-02T15:41:09.701Z,5.22
2023-04-02T15:44:05.824Z,5.97
2023-04-02T15:46:50.867Z,5.60
2023-04-02T15:49:27.099Z,5.68
2023-04-02T15:52:06.013Z,6.13
2023-04-02T15:55:10.525Z,5.35
2023-04-02T15:58:08.692Z,5.95
2023-04-02T16:01:08.983Z,5.32
2023-04-02T16:03:44.833Z,5.78
2023-04-02T16:06:50.187Z,6.10
2023-04-02T16:09:27.515Z,5.53
2023-04-02T16:12:16.545Z,6.05
2023-04-02T16:14:49.198Z,6.28
2023-04-02T16:17:25.411Z,5.87
2023-04-02T16:20:05.554Z,6.28
2023-04-02T16:22:38.033Z,5.97
2023-04-02T16:25:22.625Z,5.88
2023-04-02T16:28:17.023Z,5.80
2023-04-02T16:31:05.937Z,5.82
2023-04-02T16:33:44.774Z,5.65
2023-04-02T16:36:30.781Z,7.03
2023-04-02T16:39:21.772Z,6.00
2023-04-02T16:42:17.329Z,5.95
2023-04-02T16:45:08.650Z,5.70
2023-04-02T16:47:50.713Z,5.85
2023-04-02T16:51:04.608Z,6.80
2023-04-02T16:54:01.449Z,6.05
2023-04-02T16:57:01.167Z,5.90
2023-04-02T16:59:34.116Z,5.35
2023-04-02T17:02:29.784Z,5.60
2023-04-02T17:05:05.544Z,5.53
2023-04-02T17:07:53.473Z,5.57
2023-04-02T17:10:31.618Z,5.47
2023-04-02T17:13:33.713Z,6.30
2023-04-02T17:16:07.570Z,5.85
2023-04-02T17:18:35.356Z,6.20
2023-04-02T17:21:10.381Z,5.75
2023-04-02T17:24:02.715Z,5.80
2023-04-02T17:26:33.340Z,6.40
2023-04-02T17:29:06.152Z,6.00
2023-04-02T17:31:37.620Z,6.35
2023-04-02T17:34:16.410Z,5.90
2023-04-02T17:36:55.422Z,6.03
2023-04-02T17:39:32.843Z,5.97
2023-04-02T17:42:10.644Z,6.05
2023-04-02T17:44:47.650Z,6.30
2023-04-02T17:47:22.740Z,5.95
2023-04-02T17:50:20.517Z,6.55
2023-04-02T17:53:39.010Z,6.88
2023-04-02T17:56:24.167Z,5.10
2023-04-02T17:59:03.713Z,5.95
2023-04-02T18:01:47.072Z,5.80
2023-04-02T18:04:38.431Z,5.88
2023-04-02T18:07:40.744Z,5.90
2023-04-02T18:10:26.067Z,5.72
2023-04-02T18:12:53.088Z,5.82
2023-04-02T18:15:55.801Z,6.45
2023-04-02T18:18:25.679Z,5.68
2023-04-02T18:21:19.313Z,6.00
2023-04-02T18:24:11.717Z,6.30
2023-04-02T18:27:11.101Z,6.13
2023-04-02T18:29:56.973Z,5.75
2023-04-02T18:32:51.620Z,6.25
2023-04-02T18:35:31.992Z,6.55
2023-04-02T18:38:16.283Z,6.10
2023-04-02T18:41:01.744Z,6.20
2023-04-02T18:43:43.973Z,6.40
2023-04-02T18:46:32.036Z,6.03
2023-04-02T18:49:08.296Z,5.28
2023-04-02T18:51:39.469Z,5.90
2023-04-02T18:54:09.379Z,6.40
2023-04-02T18:56:40.777Z,6.30
2023-04-02T18:59:24.311Z,6.95
2023-04-02T19:01:54.802Z,6.60
2023-04-02T19:04:33.078Z,5.72
2023-04-02T19:07:14.499Z,6.00
2023-04-02T19:09:48.709Z,5.93
2023-04-02T19:12:21.235Z,6.60
2023-04-02T19:14:51.120Z,6.32
2023-04-02T19:17:37.410Z,5.97
2023-04-02T19:20:29.224Z,6.57
2023-04-02T19:24:07.189Z,5.60
2023-04-02T19:26:49.524Z,5.63
2023-04-02T19:29:46.448Z,5.72
2023-04-02T19:32:27.737Z,5.03
2023-04-02T19:35:06.641Z,6.45
2023-04-02T19:37:42.492Z,6.40
2023-04-02T19:40:21.468Z,5.93
2023-04-02T19:42:55.268Z,6.18
2023-04-02T19:45:27.661Z,5.00
2023-04-02T19:47:56.965Z,5.82
2023-04-02T19:50:24.305Z,5.72
2023-04-02T19:52:51.440Z,5.50
2023-04-02T19:55:18.501Z,4.90
2023-04-02T19:57:45.591Z,5.53
2023-04-02T20:00:14.970Z,6.13
2023-04-02T20:02:42.144Z,6.60
2023-04-02T20:05:09.732Z,6.10
2023-04-02T20:07:36.733Z,6.53
2023-04-02T20:10:03.985Z,12.27
2023-04-02T20:12:31.243Z,11.65
2023-04-02T20:14:58.291Z,8.95
2023-04-02T20:17:25.867Z,11.98
2023-04-02T20:19:53.009Z,12.07
2023-04-02T20:22:20.094Z,13.93
2023-04-02T20:24:47.277Z,11.40
2023-04-02T20:27:14.396Z,7.15
2023-04-02T20:29:42.698Z,10.23
2023-04-02T20:32:10.630Z,10.80
2023-04-02T20:34:37.702Z,6.47
2023-04-02T20:37:04.806Z,10.02
2023-04-02T20:39:31.922Z,9.77
2023-04-02T20:42:02.658Z,10.02
2023-04-02T20:44:30.141Z,10.20
2023-04-02T20:46:57.721Z,8.85
2023-04-02T20:49:24.836Z,9.07
2023-04-02T20:51:52.994Z,10.30
2023-04-02T20:54:20.058Z,7.07
2023-04-02T20:56:47.622Z,6.75
2023-04-02T20:59:14.662Z,7.90
2023-04-02T21:01:42.555Z,8.05
2023-04-02T21:04:09.995Z,7.28
2023-04-02T21:06:39.388Z,6.50
2023-04-02T21:09:08.944Z,6.45
2023-04-02T21:11:37.440Z,6.05
2023-04-02T21:14:04.790Z,6.25
2023-04-02T21:16:32.366Z,6.05
2023-04-02T21:19:05.925Z,5.93
2023-04-02T21:21:33.625Z,5.40
2023-04-02T21:24:03.595Z,6.00
2023-04-02T21:26:34.606Z,5.82
2023-04-02T21:29:02.501Z,5.95
2023-04-02T21:31:33.438Z,5.50
2023-04-02T21:34:00.661Z,5.75
2023-04-02T21:36:31.058Z,6.05
2023-04-02T21:39:04.529Z,7.03
2023-04-02T21:41:33.697Z,7.03
2023-04-02T21:44:03.296Z,6.30
2023-04-02T21:46:33.861Z,5.60
2023-04-02T21:49:01.571Z,5.72
2023-04-02T21:51:31.418Z,6.50
2023-04-02T21:53:59.490Z,6.07
2023-04-02T21:56:28.928Z,6.07
2023-04-02T21:59:02.171Z,5.60
2023-04-02T22:01:35.298Z,7.00
2023-04-02T22:04:04.794Z,7.03
2023-04-02T22:06:36.099Z,6.53
2023-04-02T22:09:07.479Z,7.07
2023-04-02T22:11:41.764Z,7.05
2023-04-02T22:14:09.051Z,7.13
2023-04-02T22:16:36.696Z,7.50
2023-04-02T22:19:07.237Z,6.10
2023-04-02T22:21:34.841Z,6.25
2023-04-02T22:24:03.658Z,6.20
2023-04-02T22:26:32.280Z,6.63
2023-04-02T22:28:59.802Z,6.43
2023-04-02T22:31:30.661Z,5.57
2023-04-02T22:33:58.638Z,5.97
2023-04-02T22:36:27.497Z,5.78
2023-04-02T22:38:54.948Z,4.97
2023-04-02T22:41:25.907Z,5.72
2023-04-02T22:43:53.196Z,6.60
2023-04-02T22:46:21.022Z,5.20
2023-04-02T22:48:49.123Z,5.72
2023-04-02T22:51:19.213Z,5.57
2023-04-02T22:53:46.963Z,5.65
2023-04-02T22:56:17.288Z,5.15
2023-04-02T22:58:45.103Z,5.38
2023-04-02T23:01:16.527Z,5.60
2023-04-02T23:03:44.055Z,4.85
2023-04-02T23:06:14.747Z,5.15
2023-04-02T23:08:42.468Z,4.13
2023-04-02T23:11:13.134Z,4.95
2023-04-02T23:13:42.166Z,4.72
2023-04-02T23:16:12.847Z,4.95
2023-04-02T23:18:41.266Z,5.65
2023-04-02T23:21:08.894Z,4.80
2023-04-02T23:23:37.342Z,4.72
2023-04-02T23:26:17.183Z,4.40
2023-04-02T23:28:44.945Z,4.40
2023-04-02T23:31:14.733Z,4.70
2023-04-02T23:33:41.911Z,4.55
2023-04-02T23:36:28.604Z,4.97
2023-04-02T23:38:59.876Z,5.00
2023-04-02T23:41:28.640Z,5.28
2023-04-02T23:43:56.950Z,4.63
2023-04-02T23:46:25.217Z,4.75
2023-04-02T23:48:53.173Z,4.75
2023-04-02T23:51:21.029Z,4.97
2023-04-02T23:53:49.065Z,5.72
2023-04-02T23:56:16.440Z,5.07
2023-04-02T23:58:43.808Z,4.65
